CheckWX is a tool to help pilots better visualize weather data.  It is not intended as a substitute for an official pre-flight weather briefing.

12:10:14 UTC

KMLJ METAR
Baldwin County Airport
Milledgeville, Georgia, USA
Current

15 mins ago

KMLJ 251155Z AUTO 00000KT 10SM OVC110 11/10 A3009 RMK AO2
Observed
Mar-25 @ 11:55 UTC
Visibility
10 SM
Flight Rules
VFR
Cloud Levels
  • Overcast at 11,000' AGL
Temperature
11°C / 52°F
Dewpoint
10°C / 50°F
Humidity
94%
Altimeter
30.09" Hg
Pressure
1018.92 hPa
Previous

35 mins ago

KMLJ 251135Z AUTO 00000KT 10SM BKN110 10/09 A3009 RMK AO2
Observed
Mar-25 @ 11:35 UTC
Visibility
10 SM
Flight Rules
VFR
Cloud Levels
  • Broken at 11,000' AGL
Temperature
10°C / 50°F
Dewpoint
C / 48°F
Humidity
94%
Altimeter
30.09" Hg
Pressure
1018.92 hPa
Previous

55 mins ago

KMLJ 251115Z AUTO 00000KT 10SM SCT050 SCT110 10/08 A3007 RMK AO2 LTG DSNT W
Observed
Mar-25 @ 11:15 UTC
Visibility
10 SM
Flight Rules
VFR
Cloud Levels
  • Scattered at 5,000' AGL
  • Scattered at 11,000' AGL
Temperature
10°C / 50°F
Dewpoint
C / 46°F
Humidity
88%
Altimeter
30.07" Hg
Pressure
1018.32 hPa